createdAt,value
2023-12-15T00:00:40.021Z,96309.58
2023-12-15T00:03:28.646Z,96305.80
2023-12-15T00:05:59.297Z,96307.90
2023-12-15T00:08:27.793Z,96311.80
2023-12-15T00:10:56.276Z,96315.70
2023-12-15T00:13:25.736Z,96322.37
2023-12-15T00:15:55.139Z,96324.94
2023-12-15T00:18:23.691Z,96330.33
2023-12-15T00:20:52.420Z,96335.84
2023-12-15T00:23:21.640Z,96340.27
2023-12-15T00:25:50.354Z,96341.75
2023-12-15T00:28:18.973Z,96344.89
2023-12-15T00:30:47.503Z,96353.13
2023-12-15T00:33:16.203Z,96355.11
2023-12-15T00:35:47.635Z,96348.42
2023-12-15T00:38:16.133Z,96357.60
2023-12-15T00:40:44.671Z,96359.98
2023-12-15T00:43:15.116Z,96361.79
2023-12-15T00:45:43.613Z,96378.98
2023-12-15T00:48:12.226Z,96380.84
2023-12-15T00:50:40.954Z,96388.84
2023-12-15T00:53:09.465Z,96393.70
2023-12-15T00:55:38.732Z,96396.39
2023-12-15T00:58:07.319Z,96403.74
2023-12-15T01:00:35.866Z,96402.36
2023-12-15T01:03:04.611Z,96406.12
2023-12-15T01:05:33.321Z,96406.58
2023-12-15T01:08:01.849Z,96408.71
2023-12-15T01:10:30.449Z,96416.52
2023-12-15T01:12:59.039Z,96414.01
2023-12-15T01:15:27.619Z,96415.87
2023-12-15T01:17:57.717Z,96415.81
2023-12-15T01:20:26.718Z,96417.17
2023-12-15T01:22:55.332Z,96418.06
2023-12-15T01:25:23.908Z,96418.98
2023-12-15T01:27:52.493Z,96416.52
2023-12-15T01:30:21.130Z,96419.88
2023-12-15T01:32:49.711Z,96425.83
2023-12-15T01:35:18.290Z,96426.95
2023-12-15T01:37:46.828Z,96429.38
2023-12-15T01:40:15.824Z,96435.86
2023-12-15T01:42:44.300Z,96437.67
2023-12-15T01:45:12.796Z,96439.19
2023-12-15T01:47:41.871Z,96438.98
2023-12-15T01:50:10.824Z,96441.73
2023-12-15T01:52:39.837Z,96441.04
2023-12-15T01:55:08.765Z,96443.77
2023-12-15T01:57:37.597Z,96442.92
2023-12-15T02:00:08.866Z,96446.09
2023-12-15T02:02:40.484Z,96448.59
2023-12-15T02:05:09.508Z,96456.71
2023-12-15T02:07:38.525Z,96455.71
2023-12-15T02:10:07.737Z,96451.94
2023-12-15T02:12:36.220Z,96456.52
2023-12-15T02:15:05.314Z,96460.63
2023-12-15T02:17:34.012Z,96458.50
2023-12-15T02:20:02.767Z,96464.20
2023-12-15T02:22:31.383Z,96467.95
2023-12-15T02:25:00.003Z,96469.82
2023-12-15T02:27:28.598Z,96478.30
2023-12-15T02:29:57.002Z,96477.39
2023-12-15T02:32:25.449Z,96479.55
2023-12-15T02:34:54.132Z,96479.54
2023-12-15T02:37:22.581Z,96486.64
2023-12-15T02:39:51.069Z,96487.28
2023-12-15T02:42:19.547Z,96488.69
2023-12-15T02:44:48.037Z,96496.65
2023-12-15T02:47:16.556Z,96498.60
2023-12-15T02:49:45.097Z,96499.69
2023-12-15T02:52:13.681Z,96499.88
2023-12-15T02:54:42.061Z,96496.60
2023-12-15T02:57:10.538Z,96505.01
2023-12-15T02:59:41.281Z,96510.13
2023-12-15T03:02:09.900Z,96512.02
2023-12-15T03:04:38.443Z,96517.82
2023-12-15T03:07:07.031Z,96522.45
2023-12-15T03:09:35.509Z,96525.88
2023-12-15T03:12:04.413Z,96531.68
2023-12-15T03:14:32.942Z,96537.49
2023-12-15T03:17:01.880Z,96538.82
2023-12-15T03:19:30.486Z,96543.34
2023-12-15T03:21:59.053Z,96545.92
2023-12-15T03:24:27.753Z,96547.48
2023-12-15T03:26:56.121Z,96549.50
2023-12-15T03:29:24.565Z,96556.57
2023-12-15T03:31:53.130Z,96560.53
2023-12-15T03:34:21.503Z,96569.60
2023-12-15T03:36:49.942Z,96570.84
2023-12-15T03:39:18.424Z,96572.13
2023-12-15T03:41:46.905Z,96572.23
2023-12-15T03:44:15.376Z,96580.60
2023-12-15T03:46:43.878Z,96582.02
2023-12-15T03:49:12.530Z,96581.42
2023-12-15T03:51:41.243Z,96576.15
2023-12-15T03:54:09.730Z,96583.49
2023-12-15T03:56:38.209Z,96579.41
2023-12-15T03:59:07.352Z,96581.11
2023-12-15T04:01:35.785Z,96584.08
2023-12-15T04:04:04.691Z,96582.39
2023-12-15T04:06:33.187Z,96579.55
2023-12-15T04:09:01.543Z,96583.04
2023-12-15T04:11:30.082Z,96584.02
2023-12-15T04:13:58.948Z,96585.89
2023-12-15T04:16:27.509Z,96582.31
2023-12-15T04:18:56.350Z,96583.92
2023-12-15T04:21:24.880Z,96594.30
2023-12-15T04:23:53.677Z,96597.61
2023-12-15T04:26:22.268Z,96604.34
2023-12-15T04:28:50.742Z,96618.54
2023-12-15T04:31:19.214Z,96631.70
2023-12-15T04:33:47.615Z,96635.29
2023-12-15T04:36:20.752Z,96643.34
2023-12-15T04:38:49.262Z,96647.17
2023-12-15T04:41:21.955Z,96651.82
2023-12-15T04:43:50.761Z,96653.54
2023-12-15T04:46:27.514Z,96652.11
2023-12-15T04:48:58.676Z,96660.39
2023-12-15T04:51:27.770Z,96663.10
2023-12-15T04:53:56.340Z,96665.67
2023-12-15T04:56:26.946Z,96674.88
2023-12-15T04:58:55.696Z,96681.71
2023-12-15T05:01:26.839Z,96693.23
2023-12-15T05:03:55.545Z,96696.52
2023-12-15T05:06:24.704Z,96703.56
2023-12-15T05:08:53.731Z,96708.70
2023-12-15T05:11:22.468Z,96710.58
2023-12-15T05:13:50.957Z,96708.83
2023-12-15T05:16:19.430Z,96712.42
2023-12-15T05:18:47.915Z,96714.83
2023-12-15T05:21:16.514Z,96723.55
2023-12-15T05:23:45.000Z,96734.91
2023-12-15T05:26:14.022Z,96743.23
2023-12-15T05:28:42.571Z,96750.27
2023-12-15T05:31:10.949Z,96753.07
2023-12-15T05:33:39.545Z,96759.46
2023-12-15T05:36:10.154Z,96758.53
2023-12-15T05:38:40.987Z,96759.83
2023-12-15T05:41:09.421Z,96768.48
2023-12-15T05:43:38.068Z,96769.13
2023-12-15T05:46:06.858Z,96777.81
2023-12-15T05:48:35.601Z,96776.89
2023-12-15T05:51:05.925Z,96783.13
2023-12-15T05:53:42.411Z,96783.79
2023-12-15T05:56:16.501Z,96790.65
2023-12-15T05:58:45.600Z,96791.41
2023-12-15T06:01:14.183Z,96791.64
2023-12-15T06:03:43.312Z,96794.56
2023-12-15T06:06:15.484Z,96798.45
2023-12-15T06:08:44.296Z,96802.48
2023-12-15T06:11:12.903Z,96805.44
2023-12-15T06:13:43.344Z,96810.90
2023-12-15T06:16:21.732Z,96814.56
2023-12-15T06:18:50.596Z,96815.00
2023-12-15T06:21:23.808Z,96814.89
2023-12-15T06:23:52.947Z,96822.20
2023-12-15T06:26:24.497Z,96821.17
2023-12-15T06:28:57.415Z,96820.63
2023-12-15T06:31:28.848Z,96824.29
2023-12-15T06:33:57.728Z,96830.44
2023-12-15T06:36:30.791Z,96835.20
2023-12-15T06:38:59.767Z,96844.94
2023-12-15T06:41:28.827Z,96848.68
2023-12-15T06:43:57.401Z,96850.88
2023-12-15T06:46:26.543Z,96853.71
2023-12-15T06:48:55.220Z,96854.55
2023-12-15T06:51:23.778Z,96860.44
2023-12-15T06:53:52.094Z,96867.72
2023-12-15T06:56:20.469Z,96869.63
2023-12-15T06:58:48.897Z,96872.92
2023-12-15T07:01:17.343Z,96876.29
2023-12-15T07:03:45.964Z,96881.41
2023-12-15T07:06:14.555Z,96880.16
2023-12-15T07:08:43.520Z,96883.35
2023-12-15T07:11:12.220Z,96890.34
2023-12-15T07:13:40.978Z,96895.08
2023-12-15T07:16:11.591Z,96896.39
2023-12-15T07:18:41.086Z,96900.23
2023-12-15T07:21:09.664Z,96900.43
2023-12-15T07:23:39.196Z,96901.47
2023-12-15T07:26:07.739Z,96896.92
2023-12-15T07:28:37.210Z,96901.46
2023-12-15T07:31:08.872Z,96905.66
2023-12-15T07:33:38.852Z,96912.77
2023-12-15T07:36:08.353Z,96925.48
2023-12-15T07:38:36.998Z,96936.00
2023-12-15T07:41:07.726Z,96938.55
2023-12-15T07:43:39.297Z,96943.77
2023-12-15T07:46:18.426Z,96943.54
2023-12-15T07:48:47.297Z,96947.27
2023-12-15T07:51:21.912Z,96951.64
2023-12-15T07:53:50.392Z,96954.77
2023-12-15T07:56:22.238Z,96965.00
2023-12-15T07:58:52.154Z,96970.71
2023-12-15T08:01:21.968Z,96974.80
2023-12-15T08:03:51.534Z,96978.27
2023-12-15T08:06:20.637Z,96983.52
2023-12-15T08:08:50.276Z,96985.42
2023-12-15T08:11:18.812Z,96988.91
2023-12-15T08:13:47.976Z,96988.67
2023-12-15T08:16:16.639Z,96992.88
2023-12-15T08:18:45.577Z,96994.51
2023-12-15T08:21:14.357Z,96996.63
2023-12-15T08:23:43.629Z,97000.27
2023-12-15T08:26:22.257Z,97001.05
2023-12-15T08:28:51.265Z,97006.83
2023-12-15T08:31:19.643Z,97004.11
2023-12-15T08:33:48.313Z,97004.27
2023-12-15T08:36:17.006Z,97005.59
2023-12-15T08:38:45.491Z,97009.88
2023-12-15T08:41:14.823Z,97009.90
2023-12-15T08:43:43.475Z,97008.02
2023-12-15T08:46:11.962Z,97010.37
2023-12-15T08:48:40.664Z,97012.11
2023-12-15T08:51:09.389Z,97017.84
2023-12-15T08:53:38.077Z,97022.20
2023-12-15T08:56:06.662Z,97024.65
2023-12-15T08:58:35.188Z,97025.87
2023-12-15T09:01:05.407Z,97029.58
2023-12-15T09:03:34.239Z,97029.08
2023-12-15T09:08:34.472Z,97020.99
2023-12-15T09:11:03.200Z,97025.39
2023-12-15T09:13:31.921Z,97023.23
2023-12-15T09:16:00.498Z,97024.44
2023-12-15T09:18:29.363Z,97027.06
2023-12-15T09:20:58.353Z,97030.05
2023-12-15T09:23:26.906Z,97038.03
2023-12-15T09:25:55.454Z,97035.63
2023-12-15T09:28:23.833Z,97035.49
2023-12-15T09:30:52.424Z,97038.20
2023-12-15T09:33:21.402Z,97035.56
2023-12-15T09:35:55.175Z,97031.95
2023-12-15T09:38:23.647Z,97035.25
2023-12-15T09:40:52.192Z,97035.94
2023-12-15T09:43:20.561Z,97040.46
2023-12-15T09:45:49.175Z,97039.19
2023-12-15T09:48:20.835Z,97039.72
2023-12-15T09:50:55.502Z,97032.59
2023-12-15T09:53:25.535Z,97031.52
2023-12-15T09:55:54.813Z,97034.41
2023-12-15T09:58:23.336Z,97044.56
2023-12-15T10:00:52.449Z,97045.61
2023-12-15T10:03:21.075Z,97051.11
2023-12-15T10:05:51.760Z,97059.55
2023-12-15T10:08:25.686Z,97060.89
2023-12-15T10:10:54.762Z,97065.58
2023-12-15T10:13:23.176Z,97069.20
2023-12-15T10:15:54.773Z,97074.14
2023-12-15T10:18:32.224Z,97073.74
2023-12-15T10:21:08.153Z,97071.10
2023-12-15T10:23:36.858Z,97075.02
2023-12-15T10:26:06.789Z,97070.18
2023-12-15T10:28:40.350Z,97075.50
2023-12-15T10:31:10.075Z,97083.79
2023-12-15T10:33:38.648Z,97085.79
2023-12-15T10:36:08.909Z,97087.80
2023-12-15T10:38:37.531Z,97085.93
2023-12-15T10:41:08.916Z,97090.80
2023-12-15T10:43:39.770Z,97093.14
2023-12-15T10:46:10.813Z,97093.45
2023-12-15T10:48:41.477Z,97098.90
2023-12-15T10:51:11.212Z,97102.07
2023-12-15T10:53:42.394Z,97104.86
2023-12-15T10:56:11.149Z,97107.39
2023-12-15T10:58:40.473Z,97104.71
2023-12-15T11:01:10.992Z,97098.61
2023-12-15T11:03:40.659Z,97091.84
2023-12-15T11:06:10.435Z,97082.73
2023-12-15T11:08:39.331Z,97086.52
2023-12-15T11:11:11.560Z,97087.59
2023-12-15T11:14:03.011Z,97087.10
2023-12-15T11:16:37.155Z,97091.02
2023-12-15T11:19:06.017Z,97094.44
2023-12-15T11:21:35.568Z,97100.76
2023-12-15T11:24:06.454Z,97110.01
2023-12-15T11:26:39.301Z,97115.65
2023-12-15T11:29:12.709Z,97115.83
2023-12-15T11:31:43.981Z,97116.29
2023-12-15T11:34:38.662Z,97116.83
2023-12-15T11:37:08.085Z,97119.86
2023-12-15T11:39:37.713Z,97124.61
2023-12-15T11:42:06.788Z,97130.10
2023-12-15T11:44:35.659Z,97132.08
2023-12-15T11:47:06.906Z,97130.54
2023-12-15T11:49:35.420Z,97125.61
2023-12-15T11:52:09.853Z,97125.19
2023-12-15T11:54:39.447Z,97127.42
2023-12-15T11:57:08.035Z,97127.52
2023-12-15T11:59:39.537Z,97136.11
2023-12-15T12:02:08.195Z,97138.02
2023-12-15T12:04:37.125Z,97137.95
2023-12-15T12:07:05.951Z,97134.77
2023-12-15T12:09:34.538Z,97131.49
2023-12-15T12:12:03.091Z,97129.74
2023-12-15T12:14:32.061Z,97135.02
2023-12-15T12:17:00.628Z,97138.05
2023-12-15T12:19:33.071Z,97141.21
2023-12-15T12:22:01.454Z,97148.33
2023-12-15T12:24:30.765Z,97149.85
2023-12-15T12:27:00.177Z,97152.84
2023-12-15T12:29:32.674Z,97157.67
2023-12-15T12:32:01.175Z,97159.52
2023-12-15T12:34:29.752Z,97160.36
2023-12-15T12:36:58.394Z,97164.34
2023-12-15T12:39:28.812Z,97172.36
2023-12-15T12:41:57.375Z,97177.78
2023-12-15T12:44:26.855Z,97187.58
2023-12-15T12:46:55.390Z,97191.27
2023-12-15T12:49:24.204Z,97198.11
2023-12-15T12:51:53.418Z,97199.73
2023-12-15T12:54:21.852Z,97199.14
2023-12-15T12:56:59.854Z,97200.32
2023-12-15T12:59:29.520Z,97208.02
2023-12-15T13:02:07.384Z,97215.06
2023-12-15T13:04:44.455Z,97220.48
2023-12-15T13:07:13.085Z,97225.14
2023-12-15T13:09:41.631Z,97229.55
2023-12-15T13:12:14.632Z,97236.58
2023-12-15T13:14:43.352Z,97237.55
2023-12-15T13:17:12.469Z,97241.36
2023-12-15T13:19:41.512Z,97243.60
2023-12-15T13:22:10.090Z,97243.25
2023-12-15T13:24:46.702Z,97244.52
2023-12-15T13:27:23.529Z,97250.55
2023-12-15T13:29:52.453Z,97258.25
2023-12-15T13:32:21.173Z,97263.98
2023-12-15T13:34:52.165Z,97266.85
2023-12-15T13:37:21.361Z,97270.52
2023-12-15T13:39:49.959Z,97270.46
2023-12-15T13:42:20.183Z,97272.92
2023-12-15T13:44:50.288Z,97277.17
2023-12-15T13:47:18.950Z,97278.77
2023-12-15T13:49:47.560Z,97279.05
2023-12-15T13:52:16.164Z,97278.95
2023-12-15T13:54:45.754Z,97280.59
2023-12-15T13:57:14.556Z,97280.48
2023-12-15T13:59:43.580Z,97281.02
2023-12-15T14:02:12.180Z,97280.75
2023-12-15T14:04:41.205Z,97283.23
2023-12-15T14:07:09.804Z,97285.04
2023-12-15T14:09:39.091Z,97287.36
2023-12-15T14:12:07.646Z,97286.70
2023-12-15T14:14:36.148Z,97290.86
2023-12-15T14:17:07.708Z,97292.33
2023-12-15T14:19:38.290Z,97287.98
2023-12-15T14:22:08.669Z,97294.96
2023-12-15T14:24:37.563Z,97303.90
2023-12-15T14:27:06.189Z,97307.64
2023-12-15T14:29:34.891Z,97307.70
2023-12-15T14:32:03.881Z,97311.45
2023-12-15T14:34:32.568Z,97313.69
2023-12-15T14:37:01.423Z,97317.02
2023-12-15T14:39:29.888Z,97317.70
2023-12-15T14:41:58.634Z,97326.77
2023-12-15T14:44:27.187Z,97334.10
2023-12-15T14:46:55.961Z,97335.77
2023-12-15T14:49:24.547Z,97337.04
2023-12-15T14:51:53.120Z,97347.97
2023-12-15T14:54:21.605Z,97352.55
2023-12-15T14:56:52.933Z,97353.69
2023-12-15T14:59:21.691Z,97357.23
2023-12-15T15:01:50.235Z,97360.98
2023-12-15T15:04:22.811Z,97361.80
2023-12-15T15:06:52.053Z,97366.14
2023-12-15T15:09:24.061Z,97362.57
2023-12-15T15:11:52.690Z,97367.12
2023-12-15T15:14:21.381Z,97369.66
2023-12-15T15:16:49.922Z,97380.98
2023-12-15T15:19:18.680Z,97385.13
2023-12-15T15:21:47.183Z,97391.56
2023-12-15T15:24:15.789Z,97391.82
2023-12-15T15:26:44.300Z,97396.63
2023-12-15T15:29:13.009Z,97406.39
2023-12-15T15:31:42.341Z,97411.09
2023-12-15T15:34:10.871Z,97408.96
2023-12-15T15:36:39.677Z,97410.83
2023-12-15T15:39:08.418Z,97407.70
2023-12-15T15:41:37.107Z,97411.37
2023-12-15T15:44:10.993Z,97418.16
2023-12-15T15:46:43.597Z,97421.33
2023-12-15T15:49:12.095Z,97427.14
2023-12-15T15:51:40.907Z,97433.60
2023-12-15T15:54:16.354Z,97439.77
2023-12-15T15:56:48.120Z,97438.36
2023-12-15T15:59:16.648Z,97445.88
2023-12-15T16:01:45.398Z,97446.06
2023-12-15T16:04:14.154Z,97443.02
2023-12-15T16:06:42.981Z,97447.64
2023-12-15T16:09:11.725Z,97454.44
2023-12-15T16:11:40.390Z,97453.81
2023-12-15T16:14:11.499Z,97454.54
2023-12-15T16:16:41.411Z,97458.05
2023-12-15T16:19:10.898Z,97459.95
2023-12-15T16:21:39.624Z,97463.05
2023-12-15T16:24:09.972Z,97470.06
2023-12-15T16:26:39.515Z,97473.63
2023-12-15T16:29:09.134Z,97480.00
2023-12-15T16:31:37.899Z,97481.40
2023-12-15T16:34:06.829Z,97485.90
2023-12-15T16:36:35.925Z,97488.36
2023-12-15T16:39:04.555Z,97490.23
2023-12-15T16:41:33.628Z,97493.36
2023-12-15T16:44:02.322Z,97494.27
2023-12-15T16:46:30.916Z,97496.88
2023-12-15T16:48:59.735Z,97493.88
2023-12-15T16:51:37.400Z,97497.34
2023-12-15T16:54:06.422Z,97499.34
2023-12-15T16:56:34.837Z,97499.19
2023-12-15T16:59:03.384Z,97503.39
2023-12-15T17:01:32.003Z,97508.20
2023-12-15T17:04:00.563Z,97512.87
2023-12-15T17:06:29.339Z,97512.55
2023-12-15T17:08:57.906Z,97511.13
2023-12-15T17:11:26.395Z,97509.71
2023-12-15T17:13:54.981Z,97514.21
2023-12-15T17:16:23.557Z,97515.24
2023-12-15T17:18:52.734Z,97519.75
2023-12-15T17:21:21.446Z,97519.42
2023-12-15T17:23:51.796Z,97517.27
2023-12-15T17:26:20.364Z,97519.55
2023-12-15T17:28:50.475Z,97517.44
2023-12-15T17:31:19.008Z,97515.06
2023-12-15T17:33:47.805Z,97512.47
2023-12-15T17:36:16.844Z,97516.29
2023-12-15T17:38:45.335Z,97513.66
2023-12-15T17:41:21.967Z,97516.67
2023-12-15T17:43:50.376Z,97524.51
2023-12-15T17:46:26.415Z,97520.94
2023-12-15T17:48:55.023Z,97523.10
2023-12-15T17:51:23.867Z,97518.96
2023-12-15T17:53:52.511Z,97522.79
2023-12-15T17:56:21.095Z,97525.36
2023-12-15T17:58:49.485Z,97531.41
2023-12-15T18:01:18.802Z,97542.16
2023-12-15T18:03:47.450Z,97543.33
2023-12-15T18:06:16.093Z,97551.43
2023-12-15T18:08:46.316Z,97556.50
2023-12-15T18:11:25.942Z,97566.67
2023-12-15T18:13:56.939Z,97578.06
2023-12-15T18:16:25.939Z,97575.94
2023-12-15T18:18:56.551Z,97575.38
2023-12-15T18:21:27.457Z,97584.11
2023-12-15T18:23:56.406Z,97579.63
2023-12-15T18:26:24.783Z,97574.17
2023-12-15T18:28:53.391Z,97575.92
2023-12-15T18:31:23.168Z,97577.98
2023-12-15T18:33:53.620Z,97581.21
2023-12-15T18:36:22.198Z,97584.82
2023-12-15T18:38:50.579Z,97593.17
2023-12-15T18:41:19.262Z,97593.18
2023-12-15T18:43:47.961Z,97595.14
2023-12-15T18:46:17.810Z,97593.73
2023-12-15T18:48:46.622Z,97591.25
2023-12-15T18:51:19.646Z,97590.16
2023-12-15T18:53:48.736Z,97592.65
2023-12-15T18:56:19.923Z,97592.96
2023-12-15T18:58:50.149Z,97598.34
2023-12-15T19:01:20.622Z,97604.11
2023-12-15T19:03:49.480Z,97607.98
2023-12-15T19:06:24.403Z,97610.40
2023-12-15T19:08:53.772Z,97612.61
2023-12-15T19:11:31.239Z,97611.52
2023-12-15T19:14:00.171Z,97620.17
2023-12-15T19:16:31.569Z,97622.58
2023-12-15T19:19:00.422Z,97632.10
2023-12-15T19:21:29.280Z,97629.65
2023-12-15T19:23:57.971Z,97628.32
2023-12-15T19:26:28.542Z,97621.55
2023-12-15T19:28:59.024Z,97623.27
2023-12-15T19:31:28.282Z,97621.02
2023-12-15T19:33:57.144Z,97623.27
2023-12-15T19:36:25.782Z,97626.17
2023-12-15T19:38:54.205Z,97629.81
2023-12-15T19:41:23.583Z,97624.98
2023-12-15T19:43:52.307Z,97631.27
2023-12-15T19:46:26.389Z,97636.14
2023-12-15T19:48:54.938Z,97637.52
2023-12-15T19:51:24.091Z,97641.80
2023-12-15T19:53:52.757Z,97643.20
2023-12-15T19:56:27.473Z,97641.35
2023-12-15T19:58:57.515Z,97639.58
2023-12-15T20:01:28.917Z,97638.56
2023-12-15T20:03:58.934Z,97631.78
2023-12-15T20:06:32.218Z,97630.64
2023-12-15T20:09:01.299Z,97635.84
2023-12-15T20:11:29.888Z,97638.37
2023-12-15T20:13:58.340Z,97642.64
2023-12-15T20:16:26.712Z,97645.61
2023-12-15T20:18:55.284Z,97640.66
2023-12-15T20:21:24.187Z,97641.34
2023-12-15T20:23:52.688Z,97644.98
2023-12-15T20:26:21.272Z,97645.38
2023-12-15T20:28:49.740Z,97645.94
2023-12-15T20:31:18.412Z,97646.13
2023-12-15T20:33:47.305Z,97648.06
2023-12-15T20:36:20.354Z,97653.13
2023-12-15T20:38:49.136Z,97655.19
2023-12-15T20:41:20.727Z,97658.90
2023-12-15T20:43:50.516Z,97659.14
2023-12-15T20:46:19.584Z,97665.38
2023-12-15T20:48:49.319Z,97670.08
2023-12-15T20:51:23.235Z,97667.90
2023-12-15T20:53:52.303Z,97671.95
2023-12-15T20:56:27.558Z,97681.92
2023-12-15T20:58:56.704Z,97680.86
2023-12-15T21:01:25.956Z,97683.98
2023-12-15T21:03:55.367Z,97682.47
2023-12-15T21:06:25.504Z,97687.73
2023-12-15T21:08:54.100Z,97693.44
2023-12-15T21:11:23.173Z,97692.30
2023-12-15T21:13:57.028Z,97691.80
2023-12-15T21:16:28.465Z,97687.75
2023-12-15T21:18:57.927Z,97688.10
2023-12-15T21:21:28.165Z,97688.61
2023-12-15T21:23:57.316Z,97693.11
2023-12-15T21:26:25.687Z,97690.75
2023-12-15T21:28:57.018Z,97692.06
2023-12-15T21:31:26.234Z,97693.35
2023-12-15T21:33:56.576Z,97691.39
2023-12-15T21:36:25.143Z,97687.67
2023-12-15T21:38:53.637Z,97691.50
2023-12-15T21:41:22.315Z,97695.84
2023-12-15T21:43:53.047Z,97697.69
2023-12-15T21:46:21.607Z,97697.34
2023-12-15T21:48:50.303Z,97699.53
2023-12-15T21:51:21.488Z,97703.56
2023-12-15T21:53:49.841Z,97708.79
2023-12-15T21:56:18.324Z,97704.83
2023-12-15T21:58:46.710Z,97705.00
2023-12-15T22:01:16.771Z,97704.42
2023-12-15T22:03:50.156Z,97711.70
2023-12-15T22:06:23.320Z,97712.93
2023-12-15T22:08:52.278Z,97711.45
2023-12-15T22:11:20.914Z,97715.09
2023-12-15T22:13:49.424Z,97716.33
2023-12-15T22:16:18.020Z,97723.05
2023-12-15T22:18:46.984Z,97724.65
2023-12-15T22:21:15.544Z,97722.88
2023-12-15T22:23:45.114Z,97724.70
2023-12-15T22:26:14.514Z,97721.86
2023-12-15T22:28:43.115Z,97724.40
2023-12-15T22:31:11.656Z,97732.98
2023-12-15T22:33:40.599Z,97732.11
2023-12-15T22:36:09.407Z,97734.08
2023-12-15T22:38:40.240Z,97733.70
2023-12-15T22:41:13.794Z,97732.65
2023-12-15T22:43:45.610Z,97730.47
2023-12-15T22:46:14.117Z,97733.20
2023-12-15T22:48:43.325Z,97731.73
2023-12-15T22:51:12.002Z,97727.15
2023-12-15T22:53:40.551Z,97725.42
2023-12-15T22:56:12.721Z,97723.86
2023-12-15T22:58:41.417Z,97732.20
2023-12-15T23:01:11.056Z,97731.86
2023-12-15T23:03:40.123Z,97740.23
2023-12-15T23:06:09.199Z,97735.33
2023-12-15T23:08:38.061Z,97736.42
2023-12-15T23:11:06.794Z,97738.91
2023-12-15T23:13:35.993Z,97737.46
2023-12-15T23:16:05.016Z,97742.48
2023-12-15T23:18:34.040Z,97748.31
2023-12-15T23:21:12.339Z,97741.80
2023-12-15T23:23:44.573Z,97736.94
2023-12-15T23:26:13.070Z,97736.42
2023-12-15T23:28:41.650Z,97736.11
2023-12-15T23:31:10.920Z,97737.16
2023-12-15T23:33:39.571Z,97745.40
2023-12-15T23:36:14.760Z,97742.17
2023-12-15T23:38:43.465Z,97748.43
2023-12-15T23:41:12.481Z,97753.73
2023-12-15T23:43:40.927Z,97751.77
2023-12-15T23:46:09.649Z,97752.04
2023-12-15T23:48:38.538Z,97754.48
2023-12-15T23:51:08.679Z,97750.09
2023-12-15T23:53:37.205Z,97754.20
2023-12-15T23:56:06.228Z,97753.96
2023-12-15T23:58:34.681Z,97758.40
